createdAt,value
2017-09-13T10:20:01.890Z,97000.69
2017-09-13T10:22:30.840Z,96999.95
2017-09-13T10:25:01.851Z,96984.78
2017-09-13T10:27:31.953Z,97000.01
2017-09-13T10:30:02.253Z,96984.50
2017-09-13T10:32:31.734Z,96990.00
2017-09-13T10:35:01.378Z,96985.59
2017-09-13T10:37:31.137Z,96990.44
2017-09-13T10:40:00.860Z,96973.20
2017-09-13T10:42:41.384Z,96999.50
2017-09-13T10:45:12.588Z,96983.73
2017-09-13T10:47:47.853Z,96992.25
2017-09-13T10:50:19.114Z,97001.46
2017-09-13T10:52:56.595Z,97015.81
2017-09-13T10:55:30.327Z,97001.84
2017-09-13T10:58:00.226Z,97004.78
2017-09-13T11:00:34.171Z,97046.85
2017-09-13T11:03:09.275Z,97008.53
2017-09-13T11:05:56.830Z,97007.21
2017-09-13T11:08:47.321Z,97029.13
2017-09-13T11:59:39.285Z,97063.14
2017-09-13T12:02:11.331Z,97051.50
2017-09-13T12:04:42.927Z,97073.98
2017-09-13T12:07:16.472Z,97053.81
2017-09-13T12:12:41.763Z,97063.73
2017-09-13T12:15:13.966Z,97065.80
2017-09-13T12:17:45.101Z,97065.94
2017-09-13T12:20:18.021Z,97057.16
2017-09-13T12:25:56.157Z,97070.80
2017-09-13T12:28:27.488Z,97066.86
2017-09-13T12:31:17.355Z,97053.44
2017-09-13T12:33:52.849Z,97066.20
2017-09-13T12:36:24.748Z,97062.03
2017-09-13T12:38:56.294Z,97063.01
2017-09-13T12:41:29.669Z,97077.18
2017-09-13T12:44:06.471Z,97062.17
2017-09-13T12:49:14.353Z,97070.39
2017-09-13T12:51:52.153Z,97052.28
2017-09-13T12:54:26.457Z,97030.56
2017-09-13T12:56:56.013Z,97026.31
2017-09-13T12:59:28.987Z,97022.27
2017-09-13T13:01:58.634Z,97033.73
2017-09-13T13:04:31.429Z,97045.75
2017-09-13T13:07:06.383Z,97050.63
2017-09-13T13:09:39.281Z,97057.73
2017-09-13T13:12:15.187Z,97036.03
2017-09-13T13:14:44.024Z,97031.91
2017-09-13T13:17:14.667Z,97030.36
2017-09-13T13:19:45.858Z,97037.60
2017-09-13T13:22:17.087Z,97026.67
2017-09-13T13:24:46.538Z,97033.23
2017-09-13T13:27:15.977Z,97031.77
2017-09-13T13:29:46.146Z,97050.18
2017-09-13T13:32:16.205Z,97042.30
2017-09-13T13:34:46.337Z,97040.69
2017-09-13T13:37:15.966Z,97028.34
2017-09-13T13:39:44.313Z,97038.32
2017-09-13T13:42:14.332Z,97025.12
2017-09-13T13:44:43.886Z,97021.05
2017-09-13T13:47:13.886Z,97007.98
2017-09-13T13:49:43.101Z,97020.23
2017-09-13T13:52:20.406Z,97022.63
2017-09-13T13:54:50.078Z,97021.39
2017-09-13T13:57:19.775Z,97037.53
2017-09-13T13:59:50.400Z,97028.98
2017-09-13T14:02:20.167Z,97037.31
2017-09-13T14:04:50.167Z,97013.00
2017-09-13T14:07:20.971Z,97013.52
2017-09-13T14:09:50.662Z,97011.94
2017-09-13T14:12:20.312Z,97017.62
2017-09-13T14:14:54.295Z,97014.84
2017-09-13T14:17:25.130Z,97020.98
2017-09-13T14:19:55.287Z,97010.36
2017-09-13T14:22:25.794Z,96987.39
2017-09-13T14:27:32.026Z,96993.08
2017-09-13T14:30:02.012Z,96972.05
2017-09-13T14:32:33.404Z,96982.09
2017-09-13T14:35:06.207Z,96968.22
2017-09-13T14:37:36.533Z,96974.66
2017-09-13T14:42:46.769Z,96956.84
2017-09-13T14:45:17.745Z,96970.00
2017-09-13T14:47:47.839Z,96958.71
2017-09-13T14:50:17.918Z,96950.94
2017-09-13T14:52:49.135Z,96955.95
2017-09-13T14:55:20.390Z,96945.70
2017-09-13T14:57:51.188Z,96949.25
2017-09-13T15:00:27.463Z,96937.70
2017-09-13T15:02:59.216Z,96946.78
2017-09-13T15:05:34.435Z,96946.55
2017-09-13T15:08:13.590Z,96942.91
2017-09-13T15:10:44.433Z,96950.93
2017-09-13T15:13:24.286Z,96955.66
2017-09-13T15:19:04.673Z,96941.76
2017-09-13T15:21:42.658Z,96928.03
2017-09-13T15:24:12.530Z,96929.59
2017-09-13T15:26:48.316Z,96926.12
2017-09-13T15:29:39.791Z,96913.94
2017-09-13T15:32:15.758Z,96909.39
2017-09-13T15:34:47.387Z,96923.14
2017-09-13T15:37:16.667Z,96937.20
2017-09-13T15:39:46.530Z,96930.64
2017-09-13T15:42:16.984Z,96914.33
2017-09-13T15:44:48.178Z,96925.41
2017-09-13T15:47:17.050Z,96919.38
2017-09-13T15:49:48.769Z,96909.63
2017-09-13T15:52:23.418Z,96915.25
2017-09-13T15:54:53.119Z,96912.27
2017-09-13T15:57:22.533Z,96908.23
2017-09-13T15:59:51.394Z,96901.38
2017-09-13T16:02:20.652Z,96902.75
2017-09-13T16:04:49.692Z,96895.81
2017-09-13T16:07:19.373Z,96895.84
2017-09-13T16:09:48.876Z,96888.27
2017-09-13T16:12:18.316Z,96888.81
2017-09-13T16:14:47.718Z,96893.80
2017-09-13T16:17:16.254Z,96888.80
2017-09-13T16:19:45.680Z,96892.64
2017-09-13T16:22:14.698Z,96889.95
2017-09-13T16:24:44.438Z,96894.58
2017-09-13T16:27:13.968Z,96897.55
2017-09-13T16:29:42.378Z,96898.77
2017-09-13T16:32:12.318Z,96903.42
2017-09-13T16:34:46.595Z,96891.64
2017-09-13T16:37:16.030Z,96890.87
2017-09-13T16:39:45.807Z,96884.48
2017-09-13T16:42:15.364Z,96887.31
2017-09-13T16:44:44.569Z,96881.25
2017-09-13T16:47:14.371Z,96882.19
2017-09-13T16:49:44.141Z,96870.25
2017-09-13T16:52:13.835Z,96879.57
2017-09-13T16:54:43.853Z,96870.38
2017-09-13T16:57:13.233Z,96862.63
2017-09-13T16:59:43.327Z,96865.17
2017-09-13T17:02:13.956Z,96859.43
2017-09-13T17:04:46.251Z,96855.65
2017-09-13T17:07:15.725Z,96857.53
2017-09-13T17:09:45.221Z,96852.70
2017-09-13T17:12:15.189Z,96863.98
2017-09-13T17:14:45.827Z,96849.98
2017-09-13T17:17:16.107Z,96852.70
2017-09-13T17:19:46.175Z,96861.50
2017-09-13T17:22:15.886Z,96866.70
2017-09-13T17:24:46.399Z,96870.70
2017-09-13T17:27:16.489Z,96870.91
2017-09-13T17:29:46.173Z,96867.38
2017-09-13T17:32:15.591Z,96855.16
2017-09-13T17:34:45.289Z,96859.47
2017-09-13T17:37:14.918Z,96847.41
2017-09-13T17:39:46.347Z,96841.10
2017-09-13T17:42:15.817Z,96842.40
2017-09-13T17:44:45.387Z,96847.05
2017-09-13T17:47:14.741Z,96841.16
2017-09-13T17:49:44.272Z,96836.15
2017-09-13T17:52:13.450Z,96835.70
2017-09-13T17:54:42.635Z,96830.00
2017-09-13T17:57:12.080Z,96832.66
2017-09-13T17:59:42.395Z,96826.44
2017-09-13T18:02:12.094Z,96827.91
2017-09-13T18:04:41.668Z,96821.39
2017-09-13T18:07:13.481Z,96810.53
2017-09-13T18:09:42.967Z,96822.87
2017-09-13T18:12:12.315Z,96811.89
2017-09-13T18:14:41.800Z,96804.42
2017-09-13T18:17:10.728Z,96791.80
2017-09-13T18:19:40.697Z,96817.84
2017-09-13T18:22:10.348Z,96811.77
2017-09-13T18:24:39.901Z,96814.18
2017-09-13T18:27:10.548Z,96813.69
2017-09-13T18:29:39.779Z,96812.72
2017-09-13T18:32:09.184Z,96813.88
2017-09-13T18:34:37.253Z,96811.89
2017-09-13T18:37:06.581Z,96805.99
2017-09-13T18:39:36.515Z,96804.71
2017-09-13T18:42:06.798Z,96810.88
2017-09-13T18:44:37.578Z,96808.53
2017-09-13T18:47:07.409Z,96807.42
2017-09-13T18:49:37.136Z,96808.08
2017-09-13T18:52:06.462Z,96811.08
2017-09-13T18:54:36.479Z,96815.60
2017-09-13T18:57:07.014Z,96823.59
2017-09-13T18:59:37.087Z,96824.80
2017-09-13T19:02:07.118Z,96832.72
2017-09-13T19:04:40.723Z,96830.21
2017-09-13T19:07:10.182Z,96831.22
2017-09-13T19:09:39.282Z,96830.33
2017-09-13T19:12:09.380Z,96828.45
2017-09-13T19:14:38.623Z,96824.34
2017-09-13T19:17:08.010Z,96820.09
2017-09-13T19:19:37.461Z,96816.51
2017-09-13T19:22:06.847Z,96811.20
2017-09-13T19:24:36.034Z,96808.77
2017-09-13T19:27:05.901Z,96814.50
2017-09-13T19:29:35.850Z,96814.56
2017-09-13T19:32:05.992Z,96819.50
